Hanley Falls, Minnesota
Current Conditions -  °F | °C
As of 4:32 PM on Monday 20 Oct 2014 (Local Time) from KGDB Reporting Station
Clear Clear  
Wind Chill: 67°   Ceiling: Unl
Heat Index: 67°   Visibility: 10mi
Dew Point: 39°   Wind: 8mph
Humidity: 35%   Direction: 320°NW
Pressure: 30.03"   Gusts: 16mph
Location:  44.69°N, 95.62°W
Report Text: KGDB 202132Z AUTO 32007G14KT 10SM CLR 20/04 A3003 RMK AO2 T01950038
Loading
Personal Weather Stations






























Interactive Weather Map
Tropical Storm Tracking
New forecast layout! Learn more

10-Day Weather Forecast

Advertisements
Track Severe Weather on mobile